Terminal Aerodrome Forecast
Issued by NWS Wilmington, OH

Current Version | Previous Version | Graphics & Text | Print | Product List | Glossary On
Versions: 1 2 3 4 5 6 7 8 9 10 11 12 13 14 15 16 17 18 19 20 21 22
000
FTUS41 KILN 221500 AAA
TAFCVG
TAF AMD
KCVG 221530Z 2216/2318 25011G17KT P6SM FEW045
     FM222200 29009KT P6SM BKN050
     FM230100 35004KT P6SM SCT060 BKN200
     FM230300 06005KT P6SM BKN200=

USA.gov is the U.S. government's official web portal to all federal, state and local government web resources and services.